Time,TemperatureF,DewpointF,PressureIn,WindDirection,WindDirectionDegrees,WindSpeedMPH,WindSpeedGustMPH,Humidity,HourlyPrecipIn,Conditions,Clouds,dailyrainin,SoftwareType,DateUTC
2013-02-14 00:04:00,34.5,27.1,29.09,SW,229,10.0,10.0,74,0.00,RA,,0.00,WeatherDisplay:10.37,2013-02-14 06:04:00,
2013-02-14 00:09:00,34.3,26.9,29.09,SW,228,10.0,10.0,74,0.00,RA,,0.00,WeatherDisplay:10.37,2013-02-14 06:09:00,
2013-02-14 00:14:00,34.3,27.2,29.09,SW,225,10.0,10.0,75,0.00,CLR,,0.00,WeatherDisplay:10.37,2013-02-14 06:14:00,
2013-02-14 00:19:00,34.2,27.1,29.09,SW,225,10.0,11.0,75,0.00,CLR,,0.00,WeatherDisplay:10.37,2013-02-14 06:19:00,
2013-02-14 00:24:00,34.2,27.1,29.09,SW,223,10.0,11.0,75,0.00,CLR,,0.00,WeatherDisplay:10.37,2013-02-14 06:24:00,
2013-02-14 00:29:00,34.2,27.4,29.09,SW,218,10.0,11.0,76,0.00,CLR,,0.00,WeatherDisplay:10.37,2013-02-14 06:29:00,
2013-02-14 00:34:00,34.0,27.2,29.09,SW,215,10.0,11.0,76,0.00,CLR,,0.00,WeatherDisplay:10.37,2013-02-14 06:34:00,
2013-02-14 00:39:00,33.8,27.0,29.09,SW,215,10.0,11.0,76,0.00,CLR,,0.00,WeatherDisplay:10.37,2013-02-14 06:39:00,
2013-02-14 00:44:00,33.8,27.4,29.09,SSW,213,10.0,11.0,77,0.00,CLR,,0.00,WeatherDisplay:10.37,2013-02-14 06:44:00,
2013-02-14 00:49:00,33.6,27.5,29.09,SSW,208,10.0,11.0,78,0.00,CLR,,0.00,WeatherDisplay:10.37,2013-02-14 06:49:00,
2013-02-14 00:54:00,33.8,27.4,29.09,SSW,209,10.0,11.0,77,0.00,CLR,,0.00,WeatherDisplay:10.37,2013-02-14 06:54:00,
2013-02-14 00:59:00,34.0,27.8,29.09,SSW,210,10.0,11.0,78,0.00,CLR,,0.00,WeatherDisplay:10.37,2013-02-14 06:59:00,
2013-02-14 01:04:00,33.8,27.7,29.09,SSW,212,10.0,11.0,78,0.00,CLR,,0.00,WeatherDisplay:10.37,2013-02-14 07:04:00,
2013-02-14 01:09:00,33.6,27.8,29.09,SSW,212,10.0,11.0,79,0.00,CLR,,0.00,WeatherDisplay:10.37,2013-02-14 07:09:00,
2013-02-14 01:14:00,34.0,28.2,29.09,SSW,208,12.0,12.0,79,0.00,CLR,,0.00,WeatherDisplay:10.37,2013-02-14 07:14:00,
2013-02-14 01:19:00,34.2,28.3,29.09,SSW,209,12.0,12.0,79,0.00,CLR,,0.00,WeatherDisplay:10.37,2013-02-14 07:19:00,
2013-02-14 01:24:00,34.2,28.3,29.06,SSW,210,12.0,12.0,79,0.00,CLR,,0.00,WeatherDisplay:10.37,2013-02-14 07:24:00,
2013-02-14 01:29:00,34.5,28.7,29.06,SSW,208,12.0,12.0,79,0.00,CLR,,0.00,WeatherDisplay:10.37,2013-02-14 07:29:00,
2013-02-14 01:34:00,34.7,29.2,29.06,SSW,205,12.0,12.0,80,0.00,CLR,,0.00,WeatherDisplay:10.37,2013-02-14 07:34:00,
2013-02-14 01:39:00,34.7,29.2,29.06,SSW,205,12.0,12.0,80,0.00,CLR,,0.00,WeatherDisplay:10.37,2013-02-14 07:39:00,
2013-02-14 01:44:00,35.1,29.5,29.06,SSW,205,13.0,13.0,80,0.00,CLR,,0.00,WeatherDisplay:10.37,2013-02-14 07:44:00,
2013-02-14 01:49:00,35.2,29.7,29.06,SSW,210,13.0,13.0,80,0.00,CLR,,0.00,WeatherDisplay:10.37,2013-02-14 07:49:00,
2013-02-14 01:54:00,35.2,29.7,29.06,SSW,210,13.0,13.0,80,0.00,CLR,,0.00,WeatherDisplay:10.37,2013-02-14 07:54:00,
2013-02-14 01:59:00,35.6,29.7,29.06,SSW,205,13.0,13.0,79,0.00,CLR,,0.00,WeatherDisplay:10.37,2013-02-14 07:59:00,
2013-02-14 02:04:00,35.6,29.7,29.06,SSW,207,13.0,13.0,79,0.00,CLR,,0.00,WeatherDisplay:10.37,2013-02-14 08:04:00,
2013-02-14 02:09:00,35.6,29.4,29.06,SSW,209,13.0,13.0,78,0.00,CLR,,0.00,WeatherDisplay:10.37,2013-02-14 08:09:00,
2013-02-14 02:14:00,35.6,29.4,29.06,SW,217,13.0,13.0,78,0.00,CLR,,0.00,WeatherDisplay:10.37,2013-02-14 08:14:00,
2013-02-14 02:19:00,35.2,29.4,29.06,SW,222,13.0,13.0,79,0.00,CLR,,0.00,WeatherDisplay:10.37,2013-02-14 08:19:00,
2013-02-14 02:24:00,35.2,29.4,29.06,SW,220,12.0,13.0,79,0.00,CLR,,0.00,WeatherDisplay:10.37,2013-02-14 08:24:00,
2013-02-14 02:29:00,35.1,29.2,29.06,SW,217,12.0,12.0,79,0.00,CLR,,0.00,WeatherDisplay:10.37,2013-02-14 08:29:00,
2013-02-14 02:34:00,35.2,29.4,29.06,SW,222,12.0,12.0,79,0.00,CLR,,0.00,WeatherDisplay:10.37,2013-02-14 08:34:00,
2013-02-14 02:39:00,35.2,29.4,29.06,SW,220,12.0,12.0,79,0.00,CLR,,0.00,WeatherDisplay:10.37,2013-02-14 08:39:00,
2013-02-14 02:44:00,35.2,29.4,29.06,SW,216,12.0,12.0,79,0.00,CLR,,0.00,WeatherDisplay:10.37,2013-02-14 08:44:00,
2013-02-14 02:49:00,35.2,29.4,29.06,SW,220,12.0,12.0,79,0.00,CLR,,0.00,WeatherDisplay:10.37,2013-02-14 08:49:00,
2013-02-14 02:54:00,35.6,29.4,29.06,SW,223,12.0,12.0,78,0.00,CLR,,0.00,WeatherDisplay:10.37,2013-02-14 08:54:00,
2013-02-14 02:59:00,35.2,29.4,29.06,SW,224,12.0,12.0,79,0.00,CLR,,0.00,WeatherDisplay:10.37,2013-02-14 08:59:00,
2013-02-14 03:04:00,35.2,29.4,29.06,SW,230,12.0,12.0,79,0.00,BKN,,0.00,WeatherDisplay:10.37,2013-02-14 09:04:00,
2013-02-14 03:09:00,35.4,29.6,29.06,SW,221,12.0,12.0,79,0.00,BKN,,0.00,WeatherDisplay:10.37,2013-02-14 09:09:00,
2013-02-14 03:14:00,35.4,29.6,29.06,SW,214,12.0,12.0,79,0.00,BKN,,0.00,WeatherDisplay:10.37,2013-02-14 09:14:00,
2013-02-14 03:19:00,35.6,29.4,29.06,SW,220,12.0,12.0,78,0.00,BKN,,0.00,WeatherDisplay:10.37,2013-02-14 09:19:00,
2013-02-14 03:34:00,35.6,29.4,29.06,SW,220,12.0,12.0,78,0.00,BKN,,0.00,WeatherDisplay:10.37,2013-02-14 09:34:00,
2013-02-14 03:39:00,35.6,29.4,29.06,SW,218,12.0,12.0,78,0.00,BKN,,0.00,WeatherDisplay:10.37,2013-02-14 09:39:00,
2013-02-14 03:44:00,35.6,29.4,29.06,SW,220,13.0,13.0,78,0.00,BKN,,0.00,WeatherDisplay:10.37,2013-02-14 09:44:00,
2013-02-14 03:49:00,35.8,29.6,29.06,SW,216,13.0,13.0,78,0.00,OVC,,0.00,WeatherDisplay:10.37,2013-02-14 09:49:00,
2013-02-14 03:54:00,35.8,29.6,29.06,SW,218,13.0,13.0,78,0.00,OVC,,0.00,WeatherDisplay:10.37,2013-02-14 09:54:00,
2013-02-14 03:59:00,35.8,29.6,29.03,SW,221,13.0,13.0,78,0.00,OVC,,0.00,WeatherDisplay:10.37,2013-02-14 09:59:00,
2013-02-14 04:04:00,36.0,29.8,29.06,SW,224,13.0,13.0,78,0.00,OVC,,0.00,WeatherDisplay:10.37,2013-02-14 10:04:00,
2013-02-14 04:09:00,35.8,29.6,29.06,SW,225,13.0,13.0,78,0.00,OVC,,0.00,WeatherDisplay:10.37,2013-02-14 10:09:00,
2013-02-14 04:14:00,36.0,29.8,29.06,SW,227,14.0,14.0,78,0.00,OVC,,0.00,WeatherDisplay:10.37,2013-02-14 10:14:00,
2013-02-14 04:19:00,35.8,29.6,29.06,SW,226,14.0,14.0,78,0.00,BKN,,0.00,WeatherDisplay:10.37,2013-02-14 10:19:00,
2013-02-14 04:24:00,35.8,29.6,29.06,SW,225,14.0,14.0,78,0.00,BKN,,0.00,WeatherDisplay:10.37,2013-02-14 10:24:00,
2013-02-14 04:29:00,35.4,29.2,29.06,SW,225,14.0,14.0,78,0.00,BKN,,0.00,WeatherDisplay:10.37,2013-02-14 10:29:00,
2013-02-14 04:34:00,35.2,29.1,29.06,SW,220,14.0,14.0,78,0.00,OVC,,0.00,WeatherDisplay:10.37,2013-02-14 10:34:00,
2013-02-14 04:39:00,35.2,29.1,29.03,SW,219,15.0,15.0,78,0.00,OVC,,0.00,WeatherDisplay:10.37,2013-02-14 10:39:00,
2013-02-14 04:44:00,35.2,29.1,29.03,SW,222,15.0,15.0,78,0.00,OVC,,0.00,WeatherDisplay:10.37,2013-02-14 10:44:00,
2013-02-14 04:49:00,34.9,28.7,29.03,SW,220,14.0,15.0,78,0.00,BKN,,0.00,WeatherDisplay:10.37,2013-02-14 10:49:00,
2013-02-14 04:54:00,34.9,28.7,29.06,SW,222,14.0,14.0,78,0.00,BKN,,0.00,WeatherDisplay:10.37,2013-02-14 10:54:00,
2013-02-14 04:59:00,34.5,28.7,29.06,SW,225,14.0,14.0,79,0.00,BKN,,0.00,WeatherDisplay:10.37,2013-02-14 10:59:00,
2013-02-14 05:04:00,35.1,29.2,29.06,SW,227,14.0,14.0,79,0.00,SCT,,0.00,WeatherDisplay:10.37,2013-02-14 11:04:00,
2013-02-14 05:09:00,35.1,29.5,29.06,SW,226,14.0,14.0,80,0.00,SCT,,0.00,WeatherDisplay:10.37,2013-02-14 11:09:00,
2013-02-14 05:14:00,35.2,29.7,29.06,SW,225,14.0,14.0,80,0.00,SCT,,0.00,WeatherDisplay:10.37,2013-02-14 11:14:00,
2013-02-14 05:19:00,35.4,29.9,29.06,SW,225,14.0,14.0,80,0.00,SCT,,0.00,WeatherDisplay:10.37,2013-02-14 11:19:00,
2013-02-14 05:24:00,35.6,29.7,29.06,SW,224,14.0,14.0,79,0.00,SCT,,0.00,WeatherDisplay:10.37,2013-02-14 11:24:00,
2013-02-14 05:29:00,35.4,29.9,29.06,SW,225,14.0,14.0,80,0.00,SCT,,0.00,WeatherDisplay:10.37,2013-02-14 11:29:00,
2013-02-14 05:34:00,35.6,29.7,29.06,SW,225,14.0,14.0,79,0.00,BKN,,0.00,WeatherDisplay:10.37,2013-02-14 11:34:00,
2013-02-14 05:39:00,35.6,29.7,29.06,SW,225,14.0,14.0,79,0.00,BKN,,0.00,WeatherDisplay:10.37,2013-02-14 11:39:00,
2013-02-14 05:44:00,35.6,29.4,29.06,SW,227,14.0,14.0,78,0.00,BKN,,0.00,WeatherDisplay:10.37,2013-02-14 11:44:00,
2013-02-14 05:49:00,35.4,29.6,29.06,SW,225,13.0,14.0,79,0.00,OVC,,0.00,WeatherDisplay:10.37,2013-02-14 11:49:00,
2013-02-14 05:54:00,35.1,29.2,29.06,SW,225,13.0,13.0,79,0.00,OVC,,0.00,WeatherDisplay:10.37,2013-02-14 11:54:00,
2013-02-14 05:59:00,34.7,28.9,29.06,SW,223,13.0,13.0,79,0.00,OVC,,0.00,WeatherDisplay:10.37,2013-02-14 11:59:00,
2013-02-14 06:04:00,34.9,29.0,29.06,SW,223,13.0,13.0,79,0.00,OVC,,0.00,WeatherDisplay:10.37,2013-02-14 12:04:00,
2013-02-14 06:09:00,34.5,28.7,29.06,SW,228,13.0,13.0,79,0.00,OVC,,0.00,WeatherDisplay:10.37,2013-02-14 12:09:00,
2013-02-14 06:14:00,34.2,28.3,29.06,SW,230,13.0,13.0,79,0.00,OVC,,0.00,WeatherDisplay:10.37,2013-02-14 12:14:00,
2013-02-14 06:19:00,34.0,28.2,29.06,SW,228,12.0,13.0,79,0.00,OVC,,0.00,WeatherDisplay:10.37,2013-02-14 12:19:00,
2013-02-14 06:24:00,33.6,28.1,29.06,SW,230,12.0,12.0,80,0.00,OVC,,0.00,WeatherDisplay:10.37,2013-02-14 12:24:00,
2013-02-14 06:29:00,33.4,27.9,29.06,WSW,237,10.0,11.0,80,0.00,OVC,,0.00,WeatherDisplay:10.37,2013-02-14 12:29:00,
2013-02-14 06:34:00,33.6,28.1,29.06,WSW,238,9.0,10.0,80,0.00,OVC,,0.00,WeatherDisplay:10.37,2013-02-14 12:34:00,
2013-02-14 06:39:00,33.3,27.8,29.06,SW,236,9.0,10.0,80,0.00,OVC,,0.00,WeatherDisplay:10.37,2013-02-14 12:39:00,
2013-02-14 06:44:00,33.3,28.1,29.06,SW,232,8.0,9.0,81,0.00,OVC,,0.00,WeatherDisplay:10.37,2013-02-14 12:44:00,
2013-02-14 06:49:00,32.9,27.7,29.06,SW,233,8.0,9.0,81,0.00,SCT,,0.00,WeatherDisplay:10.37,2013-02-14 12:49:00,
2013-02-14 06:54:00,32.7,27.5,29.06,SW,233,8.0,8.0,81,0.00,SCT,,0.00,WeatherDisplay:10.37,2013-02-14 12:54:00,
2013-02-14 06:59:00,32.5,27.4,29.06,SW,228,8.0,8.0,81,0.00,SCT,,0.00,WeatherDisplay:10.37,2013-02-14 12:59:00,
2013-02-14 07:04:00,32.7,27.5,29.09,SW,227,7.0,8.0,81,0.00,SCT,,0.00,WeatherDisplay:10.37,2013-02-14 13:04:00,
2013-02-14 07:09:00,32.7,27.5,29.09,SW,229,7.0,7.0,81,0.00,SCT,,0.00,WeatherDisplay:10.37,2013-02-14 13:09:00,
2013-02-14 07:14:00,33.1,28.2,29.09,SW,235,7.0,7.0,82,0.00,SCT,,0.00,WeatherDisplay:10.37,2013-02-14 13:14:00,
2013-02-14 07:19:00,33.8,28.6,29.06,SW,232,7.0,7.0,81,0.00,SCT,,0.00,WeatherDisplay:10.37,2013-02-14 13:19:00,
2013-02-14 07:24:00,34.5,29.6,29.06,SW,234,6.0,7.0,82,0.00,SCT,,0.00,WeatherDisplay:10.37,2013-02-14 13:24:00,
2013-02-14 07:29:00,35.8,30.8,29.09,WSW,240,6.0,6.0,82,0.00,SCT,,0.00,WeatherDisplay:10.37,2013-02-14 13:29:00,
2013-02-14 07:34:00,37.0,32.1,29.09,WSW,245,6.0,6.0,82,0.00,CLR,,0.00,WeatherDisplay:10.37,2013-02-14 13:34:00,
2013-02-14 07:39:00,37.0,31.8,29.09,WSW,247,6.0,6.0,81,0.00,CLR,,0.00,WeatherDisplay:10.37,2013-02-14 13:39:00,
2013-02-14 07:44:00,38.5,32.5,29.09,WSW,251,6.0,6.0,79,0.00,CLR,,0.00,WeatherDisplay:10.37,2013-02-14 13:44:00,
2013-02-14 07:49:00,39.4,32.4,29.09,West,259,7.0,7.0,76,0.00,CLR,,0.00,WeatherDisplay:10.37,2013-02-14 13:49:00,
2013-02-14 07:54:00,40.1,32.5,29.09,West,259,7.0,7.0,74,0.00,CLR,,0.00,WeatherDisplay:10.37,2013-02-14 13:54:00,
2013-02-14 07:59:00,41.4,32.7,29.09,West,260,7.0,7.0,71,0.00,CLR,,0.00,WeatherDisplay:10.37,2013-02-14 13:59:00,
2013-02-14 08:04:00,41.2,31.4,29.09,West,262,7.0,7.0,68,0.00,CLR,,0.00,WeatherDisplay:10.37,2013-02-14 14:04:00,
2013-02-14 08:09:00,41.2,31.0,29.09,West,266,7.0,7.0,67,0.00,CLR,,0.00,WeatherDisplay:10.37,2013-02-14 14:09:00,
2013-02-14 08:14:00,40.8,30.7,29.09,West,270,8.0,8.0,67,0.00,CLR,,0.00,WeatherDisplay:10.37,2013-02-14 14:14:00,
2013-02-14 08:19:00,39.9,29.8,29.09,West,272,8.0,8.0,67,0.00,CLR,,0.00,WeatherDisplay:10.37,2013-02-14 14:19:00,
2013-02-14 08:24:00,39.9,29.8,29.09,West,274,8.0,8.0,67,0.00,CLR,,0.00,WeatherDisplay:10.37,2013-02-14 14:24:00,
2013-02-14 08:29:00,38.8,29.5,29.12,West,275,8.0,8.0,69,0.00,CLR,,0.00,WeatherDisplay:10.37,2013-02-14 14:29:00,
2013-02-14 08:34:00,38.7,29.7,29.12,West,271,8.0,9.0,70,0.00,CLR,,0.00,WeatherDisplay:10.37,2013-02-14 14:34:00,
2013-02-14 08:39:00,39.2,30.2,29.12,West,270,8.0,8.0,70,0.00,CLR,,0.00,WeatherDisplay:10.37,2013-02-14 14:39:00,
2013-02-14 08:44:00,41.2,32.1,29.12,West,274,8.0,9.0,70,0.00,CLR,,0.00,WeatherDisplay:10.37,2013-02-14 14:44:00,
2013-02-14 08:49:00,42.1,32.3,29.12,West,271,9.0,9.0,68,0.00,CLR,,0.00,WeatherDisplay:10.37,2013-02-14 14:49:00,
2013-02-14 08:54:00,42.1,32.3,29.12,West,272,9.0,9.0,68,0.00,CLR,,0.00,WeatherDisplay:10.37,2013-02-14 14:54:00,
2013-02-14 08:59:00,43.2,31.8,29.12,West,273,10.0,10.0,64,0.00,CLR,,0.00,WeatherDisplay:10.37,2013-02-14 14:59:00,
2013-02-14 09:05:00,44.1,32.3,29.12,West,274,10.0,11.0,63,0.00,CLR,,0.00,WeatherDisplay:10.37,2013-02-14 15:05:00,
2013-02-14 09:14:00,45.0,31.5,29.12,West,275,12.0,12.0,59,0.00,CLR,,0.00,WeatherDisplay:10.37,2013-02-14 15:14:00,
2013-02-14 09:19:00,45.9,31.9,29.12,West,275,13.0,13.0,58,0.00,CLR,,0.00,WeatherDisplay:10.37,2013-02-14 15:19:00,
2013-02-14 09:24:00,45.7,31.3,29.12,West,277,13.0,13.0,57,0.00,CLR,,0.00,WeatherDisplay:10.37,2013-02-14 15:24:00,
2013-02-14 09:29:00,46.2,31.8,29.12,West,280,14.0,14.0,57,0.00,CLR,,0.00,WeatherDisplay:10.37,2013-02-14 15:29:00,
2013-02-14 09:34:00,46.8,31.9,29.12,West,280,14.0,14.0,56,0.00,CLR,,0.00,WeatherDisplay:10.37,2013-02-14 15:34:00,
2013-02-14 09:39:00,46.8,31.4,29.12,WNW,282,13.0,14.0,55,0.00,CLR,,0.00,WeatherDisplay:10.37,2013-02-14 15:39:00,
2013-02-14 09:44:00,46.9,31.1,29.12,WNW,285,14.0,14.0,54,0.00,CLR,,0.00,WeatherDisplay:10.37,2013-02-14 15:44:00,
2013-02-14 09:49:00,47.1,30.4,29.12,WNW,293,14.0,14.0,52,0.00,CLR,,0.00,WeatherDisplay:10.37,2013-02-14 15:49:00,
2013-02-14 09:55:00,47.5,30.2,29.12,WNW,299,14.0,14.0,51,0.00,CLR,,0.00,WeatherDisplay:10.37,2013-02-14 15:55:00,
2013-02-14 10:04:00,47.3,29.6,29.12,WNW,295,14.0,14.0,50,0.00,CLR,,0.00,WeatherDisplay:10.37,2013-02-14 16:04:00,
2013-02-14 10:09:00,47.3,29.6,29.12,WNW,299,14.0,14.0,50,0.00,CLR,,0.00,WeatherDisplay:10.37,2013-02-14 16:09:00,
2013-02-14 10:14:00,47.7,30.4,29.12,NW,308,14.0,14.0,51,0.00,CLR,,0.00,WeatherDisplay:10.37,2013-02-14 16:14:00,
2013-02-14 10:19:00,48.0,30.7,29.12,NW,305,15.0,15.0,51,0.00,CLR,,0.00,WeatherDisplay:10.37,2013-02-14 16:19:00,
2013-02-14 10:24:00,48.2,30.9,29.12,WNW,300,15.0,15.0,51,0.00,CLR,,0.00,WeatherDisplay:10.37,2013-02-14 16:24:00,
2013-02-14 10:29:00,47.5,29.7,29.12,WNW,300,15.0,15.0,50,0.00,CLR,,0.00,WeatherDisplay:10.37,2013-02-14 16:29:00,
2013-02-14 10:34:00,48.4,30.6,29.12,NW,305,15.0,15.0,50,0.00,CLR,,0.00,WeatherDisplay:10.37,2013-02-14 16:34:00,
2013-02-14 10:39:00,48.2,30.4,29.15,NW,308,15.0,15.0,50,0.00,CLR,,0.00,WeatherDisplay:10.37,2013-02-14 16:39:00,
2013-02-14 10:44:00,48.0,30.2,29.15,NW,309,15.0,15.0,50,0.00,CLR,,0.00,WeatherDisplay:10.37,2013-02-14 16:44:00,
2013-02-14 10:49:00,48.6,31.2,29.15,NW,304,16.0,16.0,51,0.00,CLR,,0.00,WeatherDisplay:10.37,2013-02-14 16:49:00,
2013-02-14 10:54:00,48.9,31.1,29.15,WNW,302,15.0,16.0,50,0.00,CLR,,0.00,WeatherDisplay:10.37,2013-02-14 16:54:00,
2013-02-14 10:59:00,49.1,31.2,29.15,WNW,300,15.0,15.0,50,0.00,CLR,,0.00,WeatherDisplay:10.37,2013-02-14 16:59:00,
2013-02-14 11:04:00,48.6,30.2,29.15,WNW,295,15.0,15.0,49,0.00,CLR,,0.00,WeatherDisplay:10.37,2013-02-14 17:04:00,
2013-02-14 11:09:00,48.6,30.2,29.15,WNW,295,15.0,15.0,49,0.00,CLR,,0.00,WeatherDisplay:10.37,2013-02-14 17:09:00,
2013-02-14 11:14:00,48.6,30.2,29.15,WNW,295,15.0,15.0,49,0.00,CLR,,0.00,WeatherDisplay:10.37,2013-02-14 17:14:00,
2013-02-14 11:19:00,48.7,30.9,29.15,NW,304,15.0,15.0,50,0.00,CLR,,0.00,WeatherDisplay:10.37,2013-02-14 17:19:00,
2013-02-14 11:24:00,48.0,30.2,29.15,NW,309,15.0,15.0,50,0.00,CLR,,0.00,WeatherDisplay:10.37,2013-02-14 17:24:00,
2013-02-14 11:29:00,48.4,30.6,29.15,NW,310,15.0,15.0,50,0.00,CLR,,0.00,WeatherDisplay:10.37,2013-02-14 17:29:00,
2013-02-14 11:34:00,48.9,31.1,29.15,WNW,296,15.0,15.0,50,0.00,CLR,,0.00,WeatherDisplay:10.37,2013-02-14 17:34:00,
2013-02-14 11:39:00,48.9,31.1,29.15,WNW,290,15.0,15.0,50,0.00,CLR,,0.00,WeatherDisplay:10.37,2013-02-14 17:39:00,
2013-02-14 11:44:00,47.8,29.1,29.15,WNW,300,16.0,16.0,48,0.00,CLR,,0.00,WeatherDisplay:10.37,2013-02-14 17:44:00,
2013-02-14 11:49:00,48.0,29.7,29.15,NW,318,15.0,16.0,49,0.00,CLR,,0.00,WeatherDisplay:10.37,2013-02-14 17:49:00,
2013-02-14 11:54:00,48.4,30.6,29.15,NW,310,16.0,16.0,50,0.00,CLR,,0.00,WeatherDisplay:10.37,2013-02-14 17:54:00,
2013-02-14 11:59:00,50.0,31.6,29.15,WNW,299,15.0,16.0,49,0.00,CLR,,0.00,WeatherDisplay:10.37,2013-02-14 17:59:00,
2013-02-14 12:04:00,50.4,30.9,29.15,NW,309,15.0,15.0,47,0.00,SCT,,0.00,WeatherDisplay:10.37,2013-02-14 18:04:00,
2013-02-14 12:09:00,49.8,30.4,29.15,NW,312,15.0,15.0,47,0.00,SCT,,0.00,WeatherDisplay:10.37,2013-02-14 18:09:00,
2013-02-14 12:14:00,48.2,29.4,29.15,NW,317,14.0,15.0,48,0.00,SCT,,0.00,WeatherDisplay:10.37,2013-02-14 18:14:00,
2013-02-14 12:19:00,47.7,30.4,29.15,NW,313,14.0,14.0,51,0.00,SCT,,0.00,WeatherDisplay:10.37,2013-02-14 18:19:00,
2013-02-14 12:24:00,48.4,31.1,29.15,NW,306,14.0,14.0,51,0.00,SCT,,0.00,WeatherDisplay:10.37,2013-02-14 18:24:00,
2013-02-14 12:29:00,49.1,31.2,29.15,WNW,296,14.0,14.0,50,0.00,SCT,,0.00,WeatherDisplay:10.37,2013-02-14 18:29:00,
2013-02-14 12:34:00,48.9,30.6,29.15,WNW,297,15.0,15.0,49,0.00,SCT,,0.00,WeatherDisplay:10.37,2013-02-14 18:34:00,
2013-02-14 12:39:00,48.7,30.4,29.15,WNW,297,15.0,15.0,49,0.00,SCT,,0.00,WeatherDisplay:10.37,2013-02-14 18:39:00,
2013-02-14 12:44:00,47.1,29.4,29.15,WNW,299,15.0,15.0,50,0.00,SCT,,0.00,WeatherDisplay:10.37,2013-02-14 18:44:00,
2013-02-14 12:49:00,47.8,30.6,29.15,WNW,300,15.0,15.0,51,0.00,SCT,,0.00,WeatherDisplay:10.37,2013-02-14 18:49:00,
2013-02-14 12:54:00,48.2,30.4,29.15,WNW,300,15.0,15.0,50,0.00,SCT,,0.00,WeatherDisplay:10.37,2013-02-14 18:54:00,
2013-02-14 12:59:00,48.6,30.2,29.15,WNW,300,15.0,15.0,49,0.00,SCT,,0.00,WeatherDisplay:10.37,2013-02-14 18:59:00,
2013-02-14 13:04:00,49.6,31.7,29.15,WNW,293,15.0,15.0,50,0.00,SCT,,0.00,WeatherDisplay:10.37,2013-02-14 19:04:00,
2013-02-14 13:09:00,49.1,29.7,29.18,WNW,299,15.0,15.0,47,0.00,SCT,,0.00,WeatherDisplay:10.37,2013-02-14 19:09:00,
2013-02-14 13:14:00,49.3,30.4,29.18,NW,308,15.0,15.0,48,0.00,SCT,,0.00,WeatherDisplay:10.37,2013-02-14 19:14:00,
2013-02-14 13:19:00,50.5,31.0,29.15,WNW,300,15.0,15.0,47,0.00,SCT,,0.00,WeatherDisplay:10.37,2013-02-14 19:19:00,
2013-02-14 13:24:00,48.7,28.9,29.18,NW,304,15.0,15.0,46,0.00,SCT,,0.00,WeatherDisplay:10.37,2013-02-14 19:24:00,
2013-02-14 13:29:00,48.7,29.4,29.18,NW,308,15.0,15.0,47,0.00,SCT,,0.00,WeatherDisplay:10.37,2013-02-14 19:29:00,
2013-02-14 13:34:00,50.2,30.7,29.18,NW,307,15.0,15.0,47,0.00,BKN,,0.00,WeatherDisplay:10.37,2013-02-14 19:34:00,
2013-02-14 13:39:00,50.2,30.2,29.18,NW,307,15.0,15.0,46,0.00,BKN,,0.00,WeatherDisplay:10.37,2013-02-14 19:39:00,
2013-02-14 13:44:00,50.4,29.8,29.18,NW,305,15.0,15.0,45,0.00,BKN,,0.00,WeatherDisplay:10.37,2013-02-14 19:44:00,
2013-02-14 13:49:00,50.9,30.3,29.18,WNW,298,15.0,15.0,45,0.00,BKN,,0.00,WeatherDisplay:10.37,2013-02-14 19:49:00,
2013-02-14 13:54:00,49.8,29.3,29.18,WNW,297,15.0,15.0,45,0.00,BKN,,0.00,WeatherDisplay:10.37,2013-02-14 19:54:00,
2013-02-14 13:59:00,50.2,30.2,29.15,WNW,300,15.0,15.0,46,0.00,BKN,,0.00,WeatherDisplay:10.37,2013-02-14 19:59:00,
2013-02-14 14:04:00,50.0,29.5,29.18,NW,307,15.0,15.0,45,0.00,SCT,,0.00,WeatherDisplay:10.37,2013-02-14 20:04:00,
2013-02-14 14:09:00,48.9,29.0,29.18,NW,311,15.0,15.0,46,0.00,SCT,,0.00,WeatherDisplay:10.37,2013-02-14 20:09:00,
2013-02-14 14:14:00,48.7,29.4,29.18,NW,315,15.0,15.0,47,0.00,SCT,,0.00,WeatherDisplay:10.37,2013-02-14 20:14:00,
2013-02-14 14:19:00,48.2,29.4,29.18,NW,315,14.0,15.0,48,0.00,SCT,,0.00,WeatherDisplay:10.37,2013-02-14 20:19:00,
2013-02-14 14:24:00,48.2,29.4,29.18,NW,315,14.0,14.0,48,0.00,SCT,,0.00,WeatherDisplay:10.37,2013-02-14 20:24:00,
2013-02-14 14:29:00,48.0,29.2,29.18,NW,315,14.0,14.0,48,0.00,SCT,,0.00,WeatherDisplay:10.37,2013-02-14 20:29:00,
2013-02-14 14:34:00,48.9,30.1,29.18,NW,315,14.0,14.0,48,0.00,SCT,,0.00,WeatherDisplay:10.37,2013-02-14 20:34:00,
2013-02-14 14:39:00,49.5,30.0,29.18,NW,315,14.0,14.0,47,0.00,SCT,,0.00,WeatherDisplay:10.37,2013-02-14 20:39:00,
2013-02-14 14:44:00,50.2,29.1,29.18,NW,315,14.0,14.0,44,0.00,SCT,,0.00,WeatherDisplay:10.37,2013-02-14 20:44:00,
2013-02-14 14:49:00,49.3,28.8,29.18,NW,315,14.0,14.0,45,0.00,SCT,,0.00,WeatherDisplay:10.37,2013-02-14 20:49:00,
2013-02-14 14:54:00,49.6,29.7,29.18,NW,315,13.0,14.0,46,0.00,SCT,,0.00,WeatherDisplay:10.37,2013-02-14 20:54:00,
2013-02-14 14:59:00,48.7,28.9,29.18,NW,315,13.0,13.0,46,0.00,SCT,,0.00,WeatherDisplay:10.37,2013-02-14 20:59:00,
2013-02-14 15:04:00,48.7,28.9,29.18,NW,315,13.0,13.0,46,0.00,SCT,,0.00,WeatherDisplay:10.37,2013-02-14 21:04:00,
2013-02-14 15:09:00,48.7,28.9,29.18,NW,315,13.0,13.0,46,0.00,SCT,,0.00,WeatherDisplay:10.37,2013-02-14 21:09:00,
2013-02-14 15:14:00,48.6,29.2,29.18,NW,315,13.0,13.0,47,0.00,SCT,,0.00,WeatherDisplay:10.37,2013-02-14 21:14:00,
2013-02-14 15:19:00,49.1,29.2,29.18,NW,315,13.0,13.0,46,0.00,SCT,,0.00,WeatherDisplay:10.37,2013-02-14 21:19:00,
2013-02-14 15:24:00,49.6,29.7,29.18,NW,315,13.0,13.0,46,0.00,SCT,,0.00,WeatherDisplay:10.37,2013-02-14 21:24:00,
2013-02-14 15:29:00,49.5,29.5,29.18,NW,315,13.0,13.0,46,0.00,SCT,,0.00,WeatherDisplay:10.37,2013-02-14 21:29:00,
2013-02-14 15:34:00,49.5,29.5,29.18,NW,315,13.0,13.0,46,0.00,CLR,,0.00,WeatherDisplay:10.37,2013-02-14 21:34:00,
2013-02-14 15:39:00,48.9,29.0,29.20,NW,315,13.0,13.0,46,0.00,CLR,,0.00,WeatherDisplay:10.37,2013-02-14 21:39:00,
2013-02-14 15:44:00,49.1,29.2,29.20,NW,315,13.0,13.0,46,0.00,CLR,,0.00,WeatherDisplay:10.37,2013-02-14 21:44:00,
2013-02-14 15:49:00,48.7,29.9,29.20,NW,315,13.0,13.0,48,0.00,SCT,,0.00,WeatherDisplay:10.37,2013-02-14 21:49:00,
2013-02-14 15:54:00,48.0,29.2,29.20,NW,315,13.0,13.0,48,0.00,SCT,,0.00,WeatherDisplay:10.37,2013-02-14 21:54:00,
2013-02-14 15:59:00,48.4,29.1,29.20,NW,315,13.0,13.0,47,0.00,SCT,,0.00,WeatherDisplay:10.37,2013-02-14 21:59:00,
2013-02-14 16:04:00,48.6,29.2,29.20,NW,315,13.0,13.0,47,0.00,CLR,,0.00,WeatherDisplay:10.37,2013-02-14 22:04:00,
2013-02-14 16:09:00,48.2,28.9,29.20,NW,315,13.0,13.0,47,0.00,CLR,,0.00,WeatherDisplay:10.37,2013-02-14 22:09:00,
2013-02-14 16:14:00,47.8,29.1,29.20,NW,315,13.0,13.0,48,0.00,CLR,,0.00,WeatherDisplay:10.37,2013-02-14 22:14:00,
2013-02-14 16:19:00,47.3,29.1,29.20,NW,315,13.0,13.0,49,0.00,CLR,,0.00,WeatherDisplay:10.37,2013-02-14 22:19:00,
2013-02-14 16:24:00,47.7,29.4,29.20,NW,315,13.0,13.0,49,0.00,CLR,,0.00,WeatherDisplay:10.37,2013-02-14 22:24:00,
2013-02-14 16:29:00,47.5,29.7,29.20,NW,315,13.0,13.0,50,0.00,CLR,,0.00,WeatherDisplay:10.37,2013-02-14 22:29:00,
2013-02-14 16:34:00,47.5,29.7,29.20,NW,315,13.0,13.0,50,0.00,BKN,,0.00,WeatherDisplay:10.37,2013-02-14 22:34:00,
2013-02-14 16:39:00,47.3,29.6,29.20,NW,315,13.0,13.0,50,0.00,BKN,,0.00,WeatherDisplay:10.37,2013-02-14 22:39:00,
2013-02-14 16:44:00,46.9,29.2,29.20,NW,315,13.0,13.0,50,0.00,BKN,,0.00,WeatherDisplay:10.37,2013-02-14 22:44:00,
2013-02-14 16:49:00,46.0,28.9,29.20,NNW,333,13.0,13.0,51,0.00,SCT,,0.00,WeatherDisplay:10.37,2013-02-14 22:49:00,
2013-02-14 16:54:00,46.2,29.1,29.24,NNW,340,13.0,13.0,51,0.00,SCT,,0.00,WeatherDisplay:10.37,2013-02-14 22:54:00,
2013-02-14 16:59:00,45.9,28.7,29.24,NNW,340,13.0,13.0,51,0.00,SCT,,0.00,WeatherDisplay:10.37,2013-02-14 22:59:00,
2013-02-14 17:04:00,45.9,28.7,29.24,NNW,340,13.0,13.0,51,0.00,CLR,,0.00,WeatherDisplay:10.37,2013-02-14 23:04:00,
2013-02-14 17:09:00,45.9,28.7,29.24,NNW,340,13.0,13.0,51,0.00,CLR,,0.00,WeatherDisplay:10.37,2013-02-14 23:09:00,
2013-02-14 17:14:00,45.9,28.7,29.24,NNW,340,13.0,13.0,51,0.00,CLR,,0.00,WeatherDisplay:10.37,2013-02-14 23:14:00,
2013-02-14 17:19:00,45.9,28.7,29.24,NNW,340,13.0,13.0,51,0.00,CLR,,0.00,WeatherDisplay:10.37,2013-02-14 23:19:00,
2013-02-14 17:24:00,45.9,28.7,29.24,NNW,340,13.0,13.0,51,0.00,CLR,,0.00,WeatherDisplay:10.37,2013-02-14 23:24:00,
2013-02-14 17:34:00,45.9,28.7,29.24,NNW,340,13.0,13.0,51,0.00,CLR,,0.00,WeatherDisplay:10.37,2013-02-14 23:34:00,
2013-02-14 17:39:00,45.9,28.7,29.24,NNW,340,13.0,13.0,51,0.00,CLR,,0.00,WeatherDisplay:10.37,2013-02-14 23:39:00,
2013-02-14 17:44:00,45.9,28.7,29.24,NNW,340,13.0,13.0,51,0.00,CLR,,0.00,WeatherDisplay:10.37,2013-02-14 23:44:00,
2013-02-14 17:49:00,45.9,28.7,29.24,NNW,340,13.0,13.0,51,0.00,BKN,,0.00,WeatherDisplay:10.37,2013-02-14 23:49:00,
2013-02-14 17:54:00,45.9,28.7,29.24,NNW,340,13.0,13.0,51,0.00,BKN,,0.00,WeatherDisplay:10.37,2013-02-14 23:54:00,
2013-02-14 17:59:00,45.9,28.7,29.24,NNW,340,13.0,13.0,51,0.00,BKN,,0.00,WeatherDisplay:10.37,2013-02-14 23:59:00,
2013-02-14 18:04:00,42.4,28.3,29.26,NNW,334,13.0,13.0,57,0.00,OVC,,0.00,WeatherDisplay:10.37,2013-02-15 00:04:00,
2013-02-14 18:09:00,42.1,27.9,29.26,NNW,330,13.0,13.0,57,0.00,OVC,,0.00,WeatherDisplay:10.37,2013-02-15 00:09:00,
2013-02-14 18:14:00,41.4,27.7,29.26,NW,325,13.0,13.0,58,0.00,OVC,,0.00,WeatherDisplay:10.37,2013-02-15 00:14:00,
2013-02-14 18:19:00,40.6,27.8,29.26,NW,325,12.0,13.0,60,0.00,OVC,,0.00,WeatherDisplay:10.37,2013-02-15 00:19:00,
2013-02-14 18:24:00,39.9,27.5,29.26,NW,325,12.0,12.0,61,0.00,OVC,,0.00,WeatherDisplay:10.37,2013-02-15 00:24:00,
2013-02-14 18:29:00,39.2,27.7,29.26,NW,325,10.0,12.0,63,0.00,OVC,,0.00,WeatherDisplay:10.37,2013-02-15 00:29:00,
2013-02-14 18:34:00,38.8,28.1,29.26,NW,325,10.0,11.0,65,0.00,SCT,,0.00,WeatherDisplay:10.37,2013-02-15 00:34:00,
2013-02-14 18:39:00,38.8,28.1,29.26,NW,325,10.0,11.0,65,0.00,SCT,,0.00,WeatherDisplay:10.37,2013-02-15 00:39:00,
2013-02-14 18:44:00,38.1,28.1,29.26,NW,325,10.0,10.0,67,0.00,SCT,,0.00,WeatherDisplay:10.37,2013-02-15 00:44:00,
2013-02-14 18:49:00,37.9,28.0,29.26,NW,325,10.0,10.0,67,0.00,CLR,,0.00,WeatherDisplay:10.37,2013-02-15 00:49:00,
2013-02-14 18:54:00,37.8,28.1,29.26,NW,325,10.0,10.0,68,0.00,CLR,,0.00,WeatherDisplay:10.37,2013-02-15 00:54:00,
2013-02-14 18:59:00,37.9,28.3,29.26,NW,325,9.0,10.0,68,0.00,CLR,,0.00,WeatherDisplay:10.37,2013-02-15 00:59:00,
2013-02-14 19:04:00,38.1,28.8,29.29,NW,325,9.0,10.0,69,0.00,CLR,,0.00,WeatherDisplay:10.37,2013-02-15 01:04:00,
2013-02-14 19:09:00,38.1,28.8,29.29,NNW,344,9.0,10.0,69,0.00,CLR,,0.00,WeatherDisplay:10.37,2013-02-15 01:09:00,
2013-02-14 19:14:00,38.1,28.8,29.29,NNE,15,9.0,9.0,69,0.00,CLR,,0.00,WeatherDisplay:10.37,2013-02-15 01:14:00,
2013-02-14 19:19:00,38.1,28.8,29.29,North,3,8.0,9.0,69,0.00,CLR,,0.00,WeatherDisplay:10.37,2013-02-15 01:19:00,
2013-02-14 19:24:00,38.1,28.8,29.29,North,356,8.0,8.0,69,0.00,CLR,,0.00,WeatherDisplay:10.37,2013-02-15 01:24:00,
2013-02-14 19:29:00,38.1,28.8,29.29,North,350,7.0,8.0,69,0.00,CLR,,0.00,WeatherDisplay:10.37,2013-02-15 01:29:00,
2013-02-14 19:34:00,38.1,28.8,29.29,NNW,347,7.0,7.0,69,0.00,BKN,,0.00,WeatherDisplay:10.37,2013-02-15 01:34:00,
2013-02-14 19:39:00,37.6,27.2,29.29,NNW,342,7.0,7.0,66,0.00,BKN,,0.00,WeatherDisplay:10.37,2013-02-15 01:39:00,
2013-02-14 19:49:00,37.6,27.2,29.29,NNW,337,5.0,6.0,66,0.00,BKN,,0.00,WeatherDisplay:10.37,2013-02-15 01:49:00,
2013-02-14 19:54:00,37.6,27.2,29.29,NNW,335,5.0,5.0,66,0.00,BKN,,0.00,WeatherDisplay:10.37,2013-02-15 01:54:00,
2013-02-14 19:59:00,37.6,27.2,29.29,NNW,335,3.0,4.0,66,0.00,BKN,,0.00,WeatherDisplay:10.37,2013-02-15 01:59:00,
2013-02-14 20:04:00,37.6,27.2,29.29,NNW,335,2.0,3.0,66,0.00,SCT,,0.00,WeatherDisplay:10.37,2013-02-15 02:04:00,
2013-02-14 20:09:00,37.6,27.2,29.29,NNW,335,2.0,3.0,66,0.00,SCT,,0.00,WeatherDisplay:10.37,2013-02-15 02:09:00,
2013-02-14 20:14:00,37.6,27.2,29.26,NNW,335,2.0,2.0,66,0.00,SCT,,0.00,WeatherDisplay:10.37,2013-02-15 02:14:00,
2013-02-14 20:19:00,37.6,27.2,29.26,NNW,335,1.0,2.0,66,0.00,SCT,,0.00,WeatherDisplay:10.37,2013-02-15 02:19:00,
2013-02-14 20:24:00,37.6,27.2,29.26,NNW,335,1.0,2.0,66,0.00,SCT,,0.00,WeatherDisplay:10.37,2013-02-15 02:24:00,
2013-02-14 20:29:00,37.6,27.2,29.26,NNW,335,1.0,1.0,66,0.00,SCT,,0.00,WeatherDisplay:10.37,2013-02-15 02:29:00,
2013-02-14 20:34:00,37.6,27.2,29.26,NNW,335,1.0,1.0,66,0.00,SCT,,0.00,WeatherDisplay:10.37,2013-02-15 02:34:00,
2013-02-14 20:39:00,37.6,27.2,29.26,NNW,335,1.0,1.0,66,0.00,SCT,,0.00,WeatherDisplay:10.37,2013-02-15 02:39:00,
2013-02-14 20:44:00,37.6,27.2,29.26,NNW,335,1.0,1.0,66,0.00,SCT,,0.00,WeatherDisplay:10.37,2013-02-15 02:44:00,
2013-02-14 20:49:00,37.6,27.2,29.29,NNW,335,1.0,1.0,66,0.00,CLR,,0.00,WeatherDisplay:10.37,2013-02-15 02:49:00,
2013-02-14 20:54:00,37.6,27.2,29.29,NNW,335,1.0,1.0,66,0.00,CLR,,0.00,WeatherDisplay:10.37,2013-02-15 02:54:00,
2013-02-14 20:59:00,37.6,27.2,29.29,NNW,335,1.0,1.0,66,0.00,CLR,,0.00,WeatherDisplay:10.37,2013-02-15 02:59:00,
2013-02-14 21:04:00,37.6,27.2,29.29,NNW,335,1.0,1.0,66,0.00,CLR,,0.00,WeatherDisplay:10.37,2013-02-15 03:04:00,
2013-02-14 21:09:00,37.6,27.2,29.29,NNW,335,1.0,1.0,66,0.00,CLR,,0.00,WeatherDisplay:10.37,2013-02-15 03:09:00,
2013-02-14 21:14:00,37.6,27.2,29.29,NNW,335,1.0,1.0,66,0.00,CLR,,0.00,WeatherDisplay:10.37,2013-02-15 03:14:00,
2013-02-14 21:19:00,37.6,27.2,29.29,NNW,335,1.0,1.0,66,0.00,CLR,,0.00,WeatherDisplay:10.37,2013-02-15 03:19:00,
2013-02-14 21:24:00,37.6,27.2,29.29,NNW,335,1.0,1.0,66,0.00,CLR,,0.00,WeatherDisplay:10.37,2013-02-15 03:24:00,
2013-02-14 21:29:00,37.6,27.2,29.29,NNW,335,1.0,1.0,66,0.00,CLR,,0.00,WeatherDisplay:10.37,2013-02-15 03:29:00,
2013-02-14 21:34:00,37.6,27.2,29.29,NNW,335,1.0,1.0,66,0.00,CLR,,0.00,WeatherDisplay:10.37,2013-02-15 03:34:00,
2013-02-14 21:39:00,37.6,27.2,29.29,NNW,335,1.0,1.0,66,0.00,CLR,,0.00,WeatherDisplay:10.37,2013-02-15 03:39:00,
2013-02-14 21:44:00,37.6,27.2,29.29,NNW,335,0.0,1.0,66,0.00,CLR,,0.00,WeatherDisplay:10.37,2013-02-15 03:44:00,
2013-02-14 21:49:00,37.6,27.2,29.29,NNW,335,0.0,1.0,66,0.00,CLR,,0.00,WeatherDisplay:10.37,2013-02-15 03:49:00,
2013-02-14 21:54:00,37.6,27.2,29.29,NNW,335,0.0,0.0,66,0.00,CLR,,0.00,WeatherDisplay:10.37,2013-02-15 03:54:00,
2013-02-14 21:59:00,37.6,27.2,29.29,NNW,335,0.0,0.0,66,0.00,CLR,,0.00,WeatherDisplay:10.37,2013-02-15 03:59:00,
2013-02-14 22:04:00,37.6,27.2,29.29,NNW,335,0.0,0.0,66,0.00,BKN,,0.00,WeatherDisplay:10.37,2013-02-15 04:04:00,
2013-02-14 22:09:00,37.6,27.2,29.29,NNW,335,0.0,0.0,66,0.00,BKN,,0.00,WeatherDisplay:10.37,2013-02-15 04:09:00,
2013-02-14 22:14:00,37.6,27.2,29.29,NNW,335,0.0,0.0,66,0.00,BKN,,0.00,WeatherDisplay:10.37,2013-02-15 04:14:00,
2013-02-14 22:19:00,37.6,27.2,29.29,NNW,335,0.0,0.0,66,0.00,BKN,,0.00,WeatherDisplay:10.37,2013-02-15 04:19:00,
2013-02-14 22:24:00,37.6,27.2,29.29,NNW,335,0.0,0.0,66,0.00,BKN,,0.00,WeatherDisplay:10.37,2013-02-15 04:24:00,
2013-02-14 22:29:00,37.6,27.2,29.29,NNW,335,0.0,0.0,66,0.00,BKN,,0.00,WeatherDisplay:10.37,2013-02-15 04:29:00,
2013-02-14 22:34:00,37.6,27.2,29.29,NNW,335,0.0,0.0,66,0.00,OVC,,0.00,WeatherDisplay:10.37,2013-02-15 04:34:00,
2013-02-14 22:39:00,37.6,27.2,29.29,NNW,335,0.0,0.0,66,0.00,OVC,,0.00,WeatherDisplay:10.37,2013-02-15 04:39:00,
2013-02-14 22:44:00,37.6,27.2,29.29,NNW,335,0.0,0.0,66,0.00,OVC,,0.00,WeatherDisplay:10.37,2013-02-15 04:44:00,
2013-02-14 22:49:00,37.6,27.2,29.29,NNW,335,0.0,0.0,66,0.00,BKN,,0.00,WeatherDisplay:10.37,2013-02-15 04:49:00,
2013-02-14 22:54:00,37.6,27.2,29.29,NNW,335,0.0,0.0,66,0.16,RA,,0.16,WeatherDisplay:10.37,2013-02-15 04:54:00,
2013-02-14 22:59:00,37.6,27.2,29.29,NNW,335,0.0,0.0,66,0.00,RA,,0.16,WeatherDisplay:10.37,2013-02-15 04:59:00,
2013-02-14 23:04:00,37.6,27.2,29.29,NW,321,0.0,0.0,66,0.00,OVC,,0.16,WeatherDisplay:10.37,2013-02-15 05:04:00,
2013-02-14 23:09:00,37.6,27.2,29.29,WSW,249,1.0,1.0,66,0.00,OVC,,0.16,WeatherDisplay:10.37,2013-02-15 05:09:00,
2013-02-14 23:14:00,37.6,27.2,29.29,WSW,237,1.0,1.0,66,0.00,OVC,,0.16,WeatherDisplay:10.37,2013-02-15 05:14:00,
2013-02-14 23:19:00,37.6,27.2,29.29,SW,230,2.0,2.0,66,0.00,OVC,,0.16,WeatherDisplay:10.37,2013-02-15 05:19:00,
2013-02-14 23:24:00,37.6,27.2,29.29,SW,230,2.0,3.0,66,0.00,OVC,,0.16,WeatherDisplay:10.37,2013-02-15 05:24:00,
2013-02-14 23:29:00,37.6,27.2,29.29,SW,230,3.0,3.0,66,0.00,OVC,,0.16,WeatherDisplay:10.37,2013-02-15 05:29:00,
2013-02-14 23:34:00,37.6,27.2,29.29,SW,228,3.0,3.0,66,0.00,OVC,,0.16,WeatherDisplay:10.37,2013-02-15 05:34:00,
2013-02-14 23:39:00,37.6,27.2,29.29,SW,222,3.0,4.0,66,0.00,OVC,,0.16,WeatherDisplay:10.37,2013-02-15 05:39:00,
2013-02-14 23:44:00,37.6,27.2,29.29,SW,219,3.0,4.0,66,0.00,OVC,,0.16,WeatherDisplay:10.37,2013-02-15 05:44:00,
2013-02-14 23:49:00,37.6,27.2,29.29,SW,229,5.0,5.0,66,0.00,OVC,,0.16,WeatherDisplay:10.37,2013-02-15 05:49:00,
2013-02-14 23:54:00,37.6,27.2,29.29,SW,234,5.0,5.0,66,0.00,OVC,,0.16,WeatherDisplay:10.37,2013-02-15 05:54:00,
2013-02-14 23:59:00,37.6,27.2,29.29,SW,236,5.0,5.0,66,0.00,OVC,,0.00,WeatherDisplay:10.37,2013-02-15 05:59:00,